Terminal Aerodrome Forecast
Issued by NWS

Home | Current Version | Previous Version | Text Only | Print | Product List | Glossary On
Versions: 1 2 3 4 5 6 7 8 9 10 11 12 13 14 15 16 17 18 19 20 21 22 23 24 25 26 27 28 29
000
FTUS43 KLSX 220317 AAB
TAFCPS
TAF AMD
KCPS 220317Z 2203/2224 02008KT 6SM BR OVC008
      TEMPO 2204/2207 3SM -FZRA BR
     FM220700 04008KT 5SM -RA BR OVC008
     FM221600 06007KT P6SM OVC008=

USA.gov is the U.S. government's official web portal to all federal, state and local government web resources and services.